createdAt,value
2022-08-07T00:01:43.781Z,78.36
2022-08-07T00:04:05.069Z,78.52
2022-08-07T00:06:33.973Z,79.32
2022-08-07T00:09:17.226Z,79.44
2022-08-07T00:11:55.556Z,79.70
2022-08-07T00:14:30.975Z,79.91
2022-08-07T00:17:02.245Z,80.27
2022-08-07T00:19:34.023Z,80.15
2022-08-07T00:22:24.906Z,80.14
2022-08-07T00:25:15.854Z,79.73
2022-08-07T00:27:53.290Z,79.91
2022-08-07T00:30:27.620Z,80.03
2022-08-07T00:32:58.227Z,79.88
2022-08-07T00:35:29.881Z,79.81
2022-08-07T00:37:59.249Z,80.06
2022-08-07T00:40:40.000Z,79.69
2022-08-07T00:44:00.668Z,80.08
2022-08-07T00:46:04.647Z,80.44
2022-08-07T00:48:35.350Z,80.26
2022-08-07T00:51:10.304Z,80.21
2022-08-07T00:53:50.106Z,80.23
2022-08-07T00:56:18.761Z,80.57
2022-08-07T00:58:46.774Z,80.42
2022-08-07T01:01:16.437Z,80.87
2022-08-07T01:03:56.411Z,81.01
2022-08-07T01:06:26.161Z,80.81
2022-08-07T01:08:55.679Z,81.11
2022-08-07T01:12:09.490Z,81.05
2022-08-07T01:14:11.490Z,81.15
2022-08-07T01:16:39.067Z,81.32
2022-08-07T01:19:19.031Z,81.23
2022-08-07T01:21:53.411Z,81.20
2022-08-07T01:24:27.752Z,81.71
2022-08-07T01:26:59.989Z,81.27
2022-08-07T01:29:33.774Z,81.12
2022-08-07T01:32:05.642Z,81.47
2022-08-07T01:34:47.154Z,81.09
2022-08-07T01:37:17.485Z,81.36
2022-08-07T01:39:48.204Z,81.20
2022-08-07T01:42:40.308Z,81.23
2022-08-07T01:45:18.232Z,80.84
2022-08-07T01:48:20.114Z,80.72
2022-08-07T01:50:47.525Z,80.43
2022-08-07T01:53:22.627Z,80.45
2022-08-07T01:56:16.592Z,80.20
2022-08-07T01:58:52.841Z,79.50
2022-08-07T02:01:59.726Z,79.38
2022-08-07T02:04:38.966Z,79.05
2022-08-07T02:07:24.204Z,78.50
2022-08-07T02:10:14.392Z,78.20
2022-08-07T02:12:50.229Z,77.80
2022-08-07T02:15:25.387Z,77.09
2022-08-07T02:17:56.525Z,77.02
2022-08-07T02:20:24.999Z,76.60
2022-08-07T02:23:04.740Z,76.10
2022-08-07T02:26:30.478Z,75.61
2022-08-07T02:28:27.421Z,73.59
2022-08-07T02:31:10.199Z,70.44
2022-08-07T02:34:03.931Z,66.92
2022-08-07T02:36:45.200Z,63.41
2022-08-07T02:39:43.004Z,60.84
2022-08-07T02:42:10.029Z,58.05
2022-08-07T02:44:48.327Z,55.42
2022-08-07T02:47:23.505Z,54.06
2022-08-07T02:49:59.611Z,52.25
2022-08-07T02:53:06.180Z,49.40
2022-08-07T02:56:03.623Z,47.78
2022-08-07T02:58:33.406Z,45.85
2022-08-07T03:01:05.110Z,44.07
2022-08-07T03:03:50.353Z,42.63
2022-08-07T03:06:33.260Z,41.09
2022-08-07T03:09:11.186Z,39.16
2022-08-07T03:11:52.501Z,38.69
2022-08-07T03:14:28.290Z,37.46
2022-08-07T03:16:57.696Z,36.76
2022-08-07T03:19:36.733Z,35.86
2022-08-07T03:22:07.065Z,35.13
2022-08-07T03:24:36.721Z,33.83
2022-08-07T03:27:08.998Z,33.44
2022-08-07T03:29:49.483Z,32.41
2022-08-07T03:32:29.776Z,30.88
2022-08-07T03:35:17.703Z,30.16
2022-08-07T03:38:02.180Z,29.53
2022-08-07T03:40:36.578Z,28.97
2022-08-07T03:43:14.433Z,28.13
2022-08-07T03:45:47.676Z,27.37
2022-08-07T03:48:18.362Z,26.44
2022-08-07T03:50:56.201Z,26.16
2022-08-07T03:54:05.984Z,25.80
2022-08-07T03:56:33.636Z,25.25
2022-08-07T03:59:12.815Z,24.85
2022-08-07T04:01:47.117Z,24.45
2022-08-07T04:04:18.512Z,23.72
2022-08-07T04:06:51.569Z,23.35
2022-08-07T04:09:23.003Z,22.94
2022-08-07T04:12:23.804Z,22.40
2022-08-07T04:14:47.594Z,21.67
2022-08-07T04:17:20.937Z,21.27
2022-08-07T04:20:10.804Z,20.83
2022-08-07T04:22:53.843Z,20.30
2022-08-07T04:25:39.483Z,20.15
2022-08-07T04:28:13.640Z,20.00
2022-08-07T04:30:55.481Z,19.63
2022-08-07T04:33:31.792Z,19.14
2022-08-07T04:36:06.483Z,18.72
2022-08-07T04:38:34.564Z,18.79
2022-08-07T04:41:02.836Z,18.34
2022-08-07T04:44:12.193Z,18.07
2022-08-07T04:46:59.507Z,17.69
2022-08-07T04:49:57.452Z,17.06
2022-08-07T04:52:52.541Z,16.83
2022-08-07T04:58:24.121Z,16.43
2022-08-07T05:00:08.071Z,15.83
2022-08-07T05:02:24.272Z,15.68
2022-08-07T05:05:02.333Z,15.53
2022-08-07T05:07:55.412Z,15.08
2022-08-07T05:10:43.765Z,15.12
2022-08-07T05:14:51.993Z,14.83
2022-08-07T05:16:15.779Z,14.70
2022-08-07T05:18:56.360Z,14.08
2022-08-07T05:22:00.063Z,14.55
2022-08-07T05:24:21.244Z,14.75
2022-08-07T05:26:58.041Z,14.22
2022-08-07T05:29:39.145Z,14.42
2022-08-07T05:32:19.307Z,13.95
2022-08-07T05:34:51.038Z,14.22
2022-08-07T05:37:25.352Z,14.41
2022-08-07T05:40:07.112Z,14.04
2022-08-07T05:42:55.618Z,13.70
2022-08-07T05:45:47.529Z,13.69
2022-08-07T05:48:19.678Z,12.80
2022-08-07T05:50:54.179Z,14.22
2022-08-07T05:54:13.789Z,17.29
2022-08-07T05:56:09.829Z,20.17
2022-08-07T05:58:52.325Z,22.54
2022-08-07T06:01:26.284Z,22.78
2022-08-07T06:03:58.845Z,23.88
2022-08-07T06:06:38.870Z,25.41
2022-08-07T06:09:17.908Z,27.41
2022-08-07T06:11:51.063Z,29.55
2022-08-07T06:14:28.670Z,29.79
2022-08-07T06:17:01.316Z,29.63
2022-08-07T06:19:51.922Z,30.59
2022-08-07T06:22:28.492Z,30.21
2022-08-07T06:25:10.235Z,26.43
2022-08-07T06:27:59.798Z,23.65
2022-08-07T06:30:35.617Z,21.65
2022-08-07T06:33:22.734Z,19.35
2022-08-07T06:36:06.485Z,19.09
2022-08-07T06:38:51.207Z,18.44
2022-08-07T06:42:01.062Z,18.12
2022-08-07T06:44:21.854Z,18.60
2022-08-07T06:46:53.169Z,20.02
2022-08-07T06:49:28.002Z,22.83
2022-08-07T06:51:59.543Z,24.60
2022-08-07T06:55:33.577Z,27.50
2022-08-07T06:57:39.431Z,30.29
2022-08-07T07:00:17.722Z,32.12
2022-08-07T07:02:53.679Z,33.70
2022-08-07T07:06:04.434Z,33.50
2022-08-07T07:08:18.938Z,32.80
2022-08-07T07:10:57.124Z,33.70
2022-08-07T07:13:58.170Z,33.43
2022-08-07T07:16:49.460Z,33.99
2022-08-07T07:19:57.428Z,34.57
2022-08-07T07:22:36.031Z,34.83
2022-08-07T07:26:33.288Z,35.18
2022-08-07T07:29:28.564Z,35.17
2022-08-07T07:31:44.543Z,35.81
2022-08-07T07:34:19.911Z,36.58
2022-08-07T07:36:53.771Z,37.21
2022-08-07T07:39:25.544Z,37.75
2022-08-07T07:42:12.875Z,37.44
2022-08-07T07:44:49.367Z,37.78
2022-08-07T07:47:23.778Z,37.76
2022-08-07T07:50:33.455Z,37.96
2022-08-07T07:52:46.986Z,38.23
2022-08-07T07:55:17.468Z,38.92
2022-08-07T07:57:58.292Z,38.49
2022-08-07T08:00:31.511Z,39.38
2022-08-07T08:03:16.354Z,38.81
2022-08-07T08:05:54.297Z,39.43
2022-08-07T08:08:32.361Z,39.87
2022-08-07T08:11:08.220Z,38.85
2022-08-07T08:13:53.109Z,38.81
2022-08-07T08:16:39.796Z,39.12
2022-08-07T08:20:15.600Z,38.27
2022-08-07T08:22:20.136Z,37.84
2022-08-07T08:25:25.075Z,38.02
2022-08-07T08:28:04.031Z,38.10
2022-08-07T08:30:35.094Z,37.42
2022-08-07T08:33:16.857Z,37.39
2022-08-07T08:35:56.142Z,37.18
2022-08-07T08:38:38.618Z,37.51
2022-08-07T08:41:19.022Z,37.84
2022-08-07T08:44:01.098Z,37.26
2022-08-07T08:46:45.030Z,37.40
2022-08-07T08:49:33.573Z,37.93
2022-08-07T08:52:30.367Z,36.87
2022-08-07T08:55:55.019Z,35.93
2022-08-07T08:58:28.775Z,34.89
2022-08-07T09:01:22.549Z,35.67
2022-08-07T09:04:09.265Z,35.98
2022-08-07T09:07:04.121Z,36.18
2022-08-07T09:09:56.646Z,35.14
2022-08-07T09:12:53.363Z,35.80
2022-08-07T09:16:22.815Z,36.02
2022-08-07T09:18:58.529Z,35.69
2022-08-07T09:22:09.947Z,36.34
2022-08-07T09:25:11.821Z,36.99
2022-08-07T09:28:04.076Z,37.32
2022-08-07T09:30:57.340Z,37.19
2022-08-07T09:33:53.026Z,37.09
2022-08-07T09:36:43.081Z,36.95
2022-08-07T09:39:54.050Z,37.11
2022-08-07T09:42:24.954Z,37.20
2022-08-07T09:47:26.253Z,37.71
2022-08-07T09:48:39.901Z,37.82
2022-08-07T09:52:16.758Z,38.21
2022-08-07T09:54:28.376Z,38.61
2022-08-07T09:57:17.764Z,36.77
2022-08-07T10:00:09.299Z,37.71
2022-08-07T10:04:05.251Z,37.44
2022-08-07T10:06:49.125Z,36.69
2022-08-07T10:09:42.979Z,35.26
2022-08-07T10:12:39.791Z,35.98
2022-08-07T10:15:15.507Z,35.43
2022-08-07T10:18:12.385Z,34.84
2022-08-07T10:20:57.607Z,34.92
2022-08-07T10:24:04.844Z,34.75
2022-08-07T10:26:54.155Z,34.67
2022-08-07T10:29:55.901Z,33.83
2022-08-07T10:32:53.368Z,34.70
2022-08-07T10:35:55.036Z,34.42
2022-08-07T10:38:36.314Z,34.86
2022-08-07T10:41:47.273Z,34.97
2022-08-07T10:44:38.535Z,33.62
2022-08-07T10:47:50.594Z,33.22
2022-08-07T10:50:49.883Z,34.00
2022-08-07T10:53:44.380Z,34.47
2022-08-07T10:56:33.087Z,33.60
2022-08-07T10:59:00.309Z,33.38
2022-08-07T11:01:35.707Z,33.62
2022-08-07T11:04:31.983Z,33.31
2022-08-07T11:07:15.153Z,32.40
2022-08-07T11:10:09.745Z,32.14
2022-08-07T11:13:01.924Z,32.53
2022-08-07T11:15:38.558Z,31.48
2022-08-07T11:18:22.009Z,31.09
2022-08-07T11:21:07.034Z,31.76
2022-08-07T11:23:51.875Z,30.89
2022-08-07T11:26:28.464Z,31.54
2022-08-07T11:29:40.928Z,31.54
2022-08-07T11:32:32.037Z,31.63
2022-08-07T11:35:09.416Z,31.77
2022-08-07T11:37:57.859Z,31.66
2022-08-07T11:41:08.417Z,31.48
2022-08-07T11:44:12.037Z,32.61
2022-08-07T11:46:48.604Z,33.17
2022-08-07T11:50:25.415Z,33.27
2022-08-07T11:52:37.609Z,32.78
2022-08-07T11:55:19.025Z,31.88
2022-08-07T11:58:13.197Z,36.41
2022-08-07T12:01:08.380Z,38.03
2022-08-07T12:04:13.620Z,38.86
2022-08-07T12:07:19.004Z,40.17
2022-08-07T12:10:06.979Z,41.06
2022-08-07T12:13:11.632Z,40.87
2022-08-07T12:16:08.973Z,40.55
2022-08-07T12:19:05.447Z,39.99
2022-08-07T12:22:39.575Z,40.71
2022-08-07T12:25:10.702Z,42.56
2022-08-07T12:28:10.107Z,43.55
2022-08-07T12:30:46.912Z,43.73
2022-08-07T12:33:28.205Z,44.85
2022-08-07T12:35:59.313Z,45.66
2022-08-07T12:38:42.457Z,46.48
2022-08-07T12:41:12.706Z,46.81
2022-08-07T12:44:03.990Z,47.19
2022-08-07T12:47:01.115Z,47.91
2022-08-07T12:49:49.098Z,48.05
2022-08-07T12:52:48.047Z,48.21
2022-08-07T12:55:41.226Z,48.56
2022-08-07T12:58:28.138Z,49.40
2022-08-07T13:01:28.024Z,50.36
2022-08-07T13:04:34.175Z,51.00
2022-08-07T13:08:12.330Z,51.46
2022-08-07T13:10:39.484Z,52.08
2022-08-07T13:13:46.894Z,52.49
2022-08-07T13:16:22.785Z,53.17
2022-08-07T13:19:11.541Z,54.21
2022-08-07T13:22:19.300Z,53.78
2022-08-07T13:24:56.859Z,54.82
2022-08-07T13:28:11.236Z,55.27
2022-08-07T13:30:39.973Z,55.15
2022-08-07T13:34:30.139Z,54.96
2022-08-07T13:36:26.174Z,55.11
2022-08-07T13:39:11.101Z,55.16
2022-08-07T13:41:47.453Z,54.62
2022-08-07T13:44:26.202Z,54.55
2022-08-07T13:46:59.440Z,54.98
2022-08-07T13:50:34.181Z,54.47
2022-08-07T13:52:31.589Z,54.81
2022-08-07T13:55:07.264Z,54.55
2022-08-07T13:57:59.066Z,54.58
2022-08-07T14:00:45.060Z,54.42
2022-08-07T14:03:29.998Z,55.03
2022-08-07T14:06:13.609Z,55.02
2022-08-07T14:08:53.465Z,55.35
2022-08-07T14:11:23.433Z,55.21
2022-08-07T14:14:01.292Z,55.04
2022-08-07T14:16:35.091Z,54.59
2022-08-07T14:19:17.739Z,54.88
2022-08-07T14:22:10.785Z,55.41
2022-08-07T14:24:45.867Z,55.58
2022-08-07T14:28:19.939Z,55.57
2022-08-07T14:30:12.757Z,55.00
2022-08-07T14:32:48.016Z,55.17
2022-08-07T14:35:45.579Z,54.93
2022-08-07T14:38:09.764Z,54.93
2022-08-07T14:41:14.701Z,55.05
2022-08-07T14:52:16.967Z,54.65
2022-08-07T14:54:45.046Z,54.22
2022-08-07T14:57:19.082Z,53.80
2022-08-07T15:02:39.169Z,52.92
2022-08-07T15:05:20.253Z,53.61
2022-08-07T15:07:58.526Z,54.37
2022-08-07T15:13:25.489Z,54.45
2022-08-07T15:16:11.445Z,54.81
2022-08-07T15:18:57.501Z,55.11
2022-08-07T15:25:13.219Z,56.36
2022-08-07T15:27:16.395Z,56.62
2022-08-07T15:30:04.546Z,57.05
2022-08-07T15:32:39.053Z,57.04
2022-08-07T15:35:12.686Z,56.91
2022-08-07T15:38:17.903Z,56.41
2022-08-07T15:40:34.733Z,56.04
2022-08-07T15:43:52.798Z,55.53
2022-08-07T15:46:32.252Z,56.24
2022-08-07T15:52:02.515Z,57.25
2022-08-07T15:54:40.707Z,57.56
2022-08-07T15:57:40.379Z,58.07
2022-08-07T16:00:06.234Z,58.07
2022-08-07T16:02:41.617Z,58.13
2022-08-07T16:05:19.433Z,57.89
2022-08-07T16:08:32.499Z,57.83
2022-08-07T16:10:42.051Z,58.03
2022-08-07T16:13:59.937Z,58.79
2022-08-07T16:16:48.876Z,58.90
2022-08-07T16:19:42.464Z,59.42
2022-08-07T16:22:34.038Z,59.84
2022-08-07T16:25:05.088Z,60.29
2022-08-07T16:27:41.703Z,60.53
2022-08-07T16:30:32.081Z,61.16
2022-08-07T16:34:02.929Z,61.52
2022-08-07T16:36:20.092Z,62.16
2022-08-07T16:39:17.722Z,62.28
2022-08-07T16:42:25.409Z,62.48
2022-08-07T16:45:15.322Z,62.60
2022-08-07T16:48:53.756Z,63.25
2022-08-07T16:52:01.489Z,63.15
2022-08-07T16:54:33.157Z,63.03
2022-08-07T16:57:13.018Z,62.86
2022-08-07T17:00:17.364Z,63.01
2022-08-07T17:03:05.805Z,62.93
2022-08-07T17:06:02.414Z,63.01
2022-08-07T17:09:10.335Z,63.57
2022-08-07T17:12:33.397Z,63.64
2022-08-07T17:15:02.495Z,64.12
2022-08-07T17:17:46.109Z,64.77
2022-08-07T17:20:20.924Z,65.90
2022-08-07T17:22:55.610Z,67.04
2022-08-07T17:25:48.004Z,67.22
2022-08-07T17:28:31.319Z,68.38
2022-08-07T17:31:24.785Z,68.56
2022-08-07T17:34:18.337Z,68.96
2022-08-07T17:36:59.940Z,69.69
2022-08-07T17:40:03.025Z,70.46
2022-08-07T17:42:59.517Z,71.81
2022-08-07T17:45:36.145Z,71.76
2022-08-07T17:48:12.688Z,71.67
2022-08-07T17:50:52.594Z,71.68
2022-08-07T17:53:59.769Z,72.69
2022-08-07T17:56:55.593Z,72.33
2022-08-07T17:59:51.856Z,73.09
2022-08-07T18:02:56.798Z,73.90
2022-08-07T18:06:02.336Z,73.86
2022-08-07T18:09:00.579Z,73.47
2022-08-07T18:12:08.144Z,73.74
2022-08-07T18:14:46.648Z,74.71
2022-08-07T18:18:44.993Z,74.94
2022-08-07T18:21:12.558Z,74.52
2022-08-07T18:23:46.652Z,74.48
2022-08-07T18:26:26.474Z,74.91
2022-08-07T18:30:08.295Z,74.75
2022-08-07T18:32:07.443Z,74.30
2022-08-07T18:35:00.829Z,74.51
2022-08-07T18:38:57.914Z,74.45
2022-08-07T18:41:20.791Z,74.02
2022-08-07T18:44:03.509Z,73.99
2022-08-07T18:46:46.349Z,73.78
2022-08-07T18:50:29.890Z,73.90
2022-08-07T18:53:07.856Z,74.13
2022-08-07T18:55:57.702Z,73.89
2022-08-07T18:58:56.360Z,73.76
2022-08-07T19:02:19.946Z,73.66
2022-08-07T19:05:14.993Z,74.16
2022-08-07T19:08:03.810Z,73.83
2022-08-07T19:10:51.554Z,73.71
2022-08-07T19:13:38.010Z,73.58
2022-08-07T19:17:04.141Z,73.72
2022-08-07T19:19:14.434Z,73.86
2022-08-07T19:22:04.370Z,73.44
2022-08-07T19:24:43.477Z,73.30
2022-08-07T19:28:30.058Z,73.59
2022-08-07T19:31:06.207Z,73.59
2022-08-07T19:33:15.662Z,73.77
2022-08-07T19:35:46.780Z,73.88
2022-08-07T19:38:17.803Z,73.53
2022-08-07T19:40:51.521Z,73.69
2022-08-07T19:43:44.009Z,73.83
2022-08-07T19:46:26.798Z,73.78
2022-08-07T19:49:08.462Z,74.02
2022-08-07T19:51:52.680Z,73.91
2022-08-07T19:54:33.336Z,73.88
2022-08-07T19:58:01.974Z,73.61
2022-08-07T20:00:08.959Z,73.36
2022-08-07T20:02:52.121Z,73.37
2022-08-07T20:06:01.293Z,74.69
2022-08-07T20:08:36.233Z,73.85
2022-08-07T20:11:12.271Z,73.93
2022-08-07T20:13:49.877Z,77.25
2022-08-07T20:16:35.808Z,78.95
2022-08-07T20:19:09.930Z,78.70
2022-08-07T20:21:48.127Z,77.91
2022-08-07T20:24:31.779Z,78.99
2022-08-07T20:27:03.544Z,78.97
2022-08-07T20:29:56.955Z,78.86
2022-08-07T20:32:40.114Z,80.29
2022-08-07T20:35:21.805Z,81.31
2022-08-07T20:38:06.530Z,82.46
2022-08-07T20:40:51.661Z,83.15
2022-08-07T20:43:38.502Z,84.22
2022-08-07T20:46:31.356Z,85.32
2022-08-07T20:49:58.977Z,85.62
2022-08-07T20:51:54.782Z,85.96
2022-08-07T20:54:31.996Z,86.18
2022-08-07T20:57:08.281Z,85.52
2022-08-07T21:00:06.309Z,86.23
2022-08-07T21:02:57.951Z,87.91
2022-08-07T21:05:51.126Z,89.69
2022-08-07T21:08:46.738Z,89.81
2022-08-07T21:11:40.060Z,88.86
2022-08-07T21:14:29.688Z,87.92
2022-08-07T21:18:00.631Z,86.84
2022-08-07T21:19:51.154Z,86.90
2022-08-07T21:22:34.411Z,87.27
2022-08-07T21:25:12.002Z,87.69
2022-08-07T21:28:05.772Z,88.44
2022-08-07T21:30:56.471Z,89.98
2022-08-07T21:33:44.967Z,92.24
2022-08-07T21:36:31.771Z,92.75
2022-08-07T21:39:46.340Z,94.45
2022-08-07T21:42:49.483Z,95.21
2022-08-07T21:46:08.049Z,95.70
2022-08-07T21:48:33.581Z,96.63
2022-08-07T21:51:20.065Z,96.13
2022-08-07T21:54:19.960Z,96.01
2022-08-07T21:57:08.657Z,96.75
2022-08-07T22:00:05.207Z,97.13
2022-08-07T22:03:06.215Z,97.92
2022-08-07T22:05:48.556Z,98.21
2022-08-07T22:08:28.683Z,98.04
2022-08-07T22:11:08.362Z,99.00
2022-08-07T22:13:50.441Z,99.81
2022-08-07T22:16:51.240Z,99.78
2022-08-07T22:19:29.913Z,99.96
2022-08-07T22:22:02.030Z,100.00
2022-08-07T22:24:43.650Z,99.85
2022-08-07T22:27:18.913Z,99.53
2022-08-07T22:30:03.302Z,99.48
2022-08-07T22:32:43.852Z,99.63
2022-08-07T22:35:11.735Z,100.00
2022-08-07T22:38:11.532Z,100.00
2022-08-07T22:40:50.028Z,100.00
2022-08-07T22:43:33.831Z,100.00
2022-08-07T22:47:02.080Z,99.95
2022-08-07T22:49:37.722Z,99.88
2022-08-07T22:52:37.433Z,100.00
2022-08-07T22:55:31.607Z,100.00
2022-08-07T22:58:05.283Z,99.99
2022-08-07T23:01:07.690Z,99.64
2022-08-07T23:03:58.380Z,99.00
2022-08-07T23:06:51.318Z,98.52
2022-08-07T23:09:33.849Z,97.55
2022-08-07T23:12:47.479Z,97.82
2022-08-07T23:16:06.031Z,99.12
2022-08-07T23:18:42.207Z,98.87
2022-08-07T23:21:36.727Z,99.34
2022-08-07T23:24:23.296Z,99.22
2022-08-07T23:27:34.026Z,97.27
2022-08-07T23:30:38.666Z,98.65
2022-08-07T23:34:34.557Z,98.71
2022-08-07T23:36:37.288Z,98.49
2022-08-07T23:39:14.088Z,97.87
2022-08-07T23:42:07.355Z,97.57
2022-08-07T23:44:51.193Z,96.73
2022-08-07T23:47:52.945Z,97.53
2022-08-07T23:50:39.247Z,96.87
2022-08-07T23:53:21.308Z,97.73
2022-08-07T23:56:02.971Z,98.45
2022-08-07T23:59:10.652Z,99.83
